Station Historical Data
 
Daily Summary for November 21, 2019 Units:  English    Metric   Both
« Previous Day
Next Day »
Daily Weekly Monthly Yearly Custom
  Current: High: Low: Average:
Temperature: 41.9 °F 42.4 °F 41.5 °F 41.9 °F
Dew Point: 34.6 °F 34.8 °F 34.2 °F 34.5 °F
Humidity: 75% 75% 74% 75%
Wind Speed: 5.8mph 15mph 4.6mph 8.8mph
Wind Gust: 4mph 7.3mph - -
WindNorth - - NW
Pressure: 30.17 in 30.17 in 30.14 in -
Precipitation: 0 in      
Historical Graphs
 
 
Tabular Data for November 21, 2019
Time Temperature Dew Point Pressure Wind Wind Speed Wind Gust Humidity Rainfall Rate (Hourly) solar Conditions
00:00 42.4 °F 34.7 °F 30.14 in WNW 10.4 mph 6.2 mph 74% 0 in WeatherDisplay:10.37 W/m2 CLR
00:05 42.4 °F 34.7 °F 30.14 in NNW 9.2 mph 5.8 mph 74% 0 in WeatherDisplay:10.37 W/m2 CLR
00:10 42.4 °F 34.7 °F 30.14 in NW 5 mph 2.5 mph 74% 0 in WeatherDisplay:10.37 W/m2 CLR
00:15 42.3 °F 34.6 °F 30.14 in NNW 5.8 mph 5 mph 74% 0 in WeatherDisplay:10.37 W/m2 CLR
00:20 42.2 °F 34.8 °F 30.14 in NW 10.4 mph 5.4 mph 75% 0 in WeatherDisplay:10.37 W/m2 CLR
00:25 42 °F 34.6 °F 30.14 in North 15 mph 7.3 mph 75% 0 in WeatherDisplay:10.37 W/m2 CLR
00:30 42.1 °F 34.7 °F 30.14 in NW 5.8 mph 4.1 mph 75% 0 in WeatherDisplay:10.37 W/m2 CLR
00:35 42 °F 34.6 °F 30.15 in WNW 5 mph 2.7 mph 75% 0 in WeatherDisplay:10.37 W/m2 CLR
00:40 41.9 °F 34.6 °F 30.15 in WNW 7 mph 2.4 mph 75% 0 in WeatherDisplay:10.37 W/m2 CLR
00:45 41.8 °F 34.5 °F 30.15 in NW 8.1 mph 3.7 mph 75% 0 in WeatherDisplay:10.37 W/m2 CLR
00:50 41.7 °F 34.4 °F 30.15 in WNW 4.6 mph 3.3 mph 75% 0 in WeatherDisplay:10.37 W/m2 CLR
00:55 41.6 °F 34.3 °F 30.16 in NNW 11.5 mph 6.4 mph 75% 0 in WeatherDisplay:10.37 W/m2 CLR
01:00 41.5 °F 34.2 °F 30.16 in WNW 12.7 mph 6.2 mph 75% 0 in WeatherDisplay:10.37 W/m2 CLR
01:05 41.5 °F 34.2 °F 30.16 in NNW 9.2 mph 7.1 mph 75% 0 in WeatherDisplay:10.37 W/m2 CLR
01:10 41.6 °F 34.3 °F 30.16 in NW 9.2 mph 5.3 mph 75% 0 in WeatherDisplay:10.37 W/m2 CLR
01:15 41.6 °F 34.3 °F 30.16 in NW 8.1 mph 5.1 mph 75% 0 in WeatherDisplay:10.37 W/m2 CLR
01:20 41.6 °F 34.3 °F 30.16 in NNW 13 mph 5.3 mph 75% 0 in WeatherDisplay:10.37 W/m2 CLR
01:25 41.7 °F 34.4 °F 30.16 in NW 7 mph 3.8 mph 75% 0 in WeatherDisplay:10.37 W/m2 CLR
01:30 41.7 °F 34.4 °F 30.16 in NW 11.5 mph 3.8 mph 75% 0 in WeatherDisplay:10.37 W/m2 CLR
01:35 41.7 °F 34.4 °F 30.16 in WNW 10 mph 1.8 mph 75% 0 in WeatherDisplay:10.37 W/m2 CLR
01:40 41.8 °F 34.5 °F 30.17 in NW 8.1 mph 5.2 mph 75% 0 in WeatherDisplay:10.37 W/m2 CLR
01:45 41.8 °F 34.5 °F 30.17 in NNW 9.2 mph 5 mph 75% 0 in WeatherDisplay:10.37 W/m2 CLR
01:50 41.9 °F 34.6 °F 30.17 in North 5.8 mph 4 mph 75% 0 in WeatherDisplay:10.37 W/m2 CLR
Lake Wynonah, (Auburn) PA USA